In Rescue
 
Open Full Screen Window  High Contrast Mode
Wind Gusting 19 knots
14
March 01, 2024 3:58 PM CST
Weather Information
Wind Direction
  190 °
Wind Speed
  14 kt (16 mph)
Wind Gust
  19 kt (22 mph)
Altimeter
29.74 in
Visibility
10 SM
Temperature
14° C
57° F
Dewpoint
06° C
43° F
Humidity
59%
Sky Condition
Clear
VFR

METAR KCBG 012158Z AUTO 19014G19KT 10SM CLR 14/06 A2974 RMK AO2

FAA Disclaimer: The data displayed is for advisory purposes only and is not to be used for flight planning or operations.